الصفحة الرئيسية
METAR-TAF:

METAR-TAF

مطار :

مطار باماكو موديبو كيتا الدولي

باماكو, مالي

دائرة عرض: 12-32N, خط طول: 007-57W, ارتفاع: 380 متر

مراقبة الطقس الحالي

تاريخ ووقت الإصدار 40 دقيقة قبل الساعة 11:00UTC
ريح 8 عقدة من الغرب, الاتجاه يتراوح بين الغرب/الجنوب الغربي و الغرب/الشمال الغربي
درجة الحرارة 31°درجة مئوية
الرطوبة 66%
ضغط 1014 hPa
الرؤية 10 كم أو أكثر
غيوم متفرقة على ارتفاع 2000 قدم

METAR: GABS 201100Z 27008KT 240V300 9999 SCT020 31/24 Q1014 NOSIG

زمن: 11:40 (11:40 UTC)

توقعات

تاريخ ووقت الإصدار 6ساعات و 16 دقيقة قبل الساعة 05:24UTC
التوقعات صالحة من20 الساعة 06 UTC إلى 21 الساعة 12 UTC
ريح 6 عقدة من الجنوب الغربي
الرؤية 10 كم أو أكثر
غيوم قليلة على ارتفاع 2000 قدم
نظرية الاحتمالات 40% :
مؤقت
من 20 الساعة 15 UTC إلى 20 الساعة 21 UTC
ريح 20 عقدة من الشرق تتزايد حتى 30 عقدة
الرؤية: 4000 متر
غيوم مفككة على ارتفاع 2000 قدم
غيوم قليلة على ارتفاع 3000 قدم, مزنة ركامية.
عاصفة رعدية, مطر, عاصفة مفاجئة,

TAF: GABS 200524Z 2006/2112 23006KT 9999 FEW020 PROB40 TEMPO 2015/2021 08020G30KT 4000 TSRA SQ BKN020 FEW030CB

أرصاد الطقس والتوقعات من أكثر من 4000 مطار (تقارير الطقس للمطار METAR والتنبؤ بالطقس بالمطارTAF).

المحطات المتاحة هي النقط الصفراء والحمراء على الخريطة.

حرك المؤشر فوق النقطة لمعرفة اسم المحطة.

ثم انقر لمعرفة أرصاد وتوقعات الطقس.

لتغيير الخارطة: اضغط على الأزرار الخضراء مع رمز الصليب الأسود للتكبير. على الزر الأخضر مع شرطة للتصغير، أو على الأسهم الخضراء للخرائط المجاورة.


METAR-TAF: